sensor_id;sensor_type;location;lat;lon;timestamp;pressure;altitude;pressure_sealevel;temperature;humidity
31911;BME280;18457;52.432;16.914;2022-09-23T00:02:23;101146.02;;;8.41;87.75
31911;BME280;18457;52.432;16.914;2022-09-23T00:04:55;101148.20;;;8.35;87.21
31911;BME280;18457;52.432;16.914;2022-09-23T00:07:26;101149.11;;;8.23;87.30
31911;BME280;18457;52.432;16.914;2022-09-23T00:09:58;101151.65;;;8.11;87.46
31911;BME280;18457;52.432;16.914;2022-09-23T00:12:30;101149.15;;;8.00;88.10
31911;BME280;18457;52.432;16.914;2022-09-23T00:15:01;101149.84;;;8.13;88.02
31911;BME280;18457;52.432;16.914;2022-09-23T00:17:33;101150.57;;;8.11;88.02
31911;BME280;18457;52.432;16.914;2022-09-23T00:20:06;101145.92;;;7.99;88.21
31911;BME280;18457;52.432;16.914;2022-09-23T00:22:39;101150.23;;;8.00;88.54
31911;BME280;18457;52.432;16.914;2022-09-23T00:25:11;101145.02;;;7.98;88.99
31911;BME280;18457;52.432;16.914;2022-09-23T00:27:43;101140.35;;;7.89;88.87
31911;BME280;18457;52.432;16.914;2022-09-23T00:30:14;101143.23;;;7.80;88.36
31911;BME280;18457;52.432;16.914;2022-09-23T00:32:48;101138.36;;;7.86;88.70
31911;BME280;18457;52.432;16.914;2022-09-23T00:35:19;101141.43;;;7.85;89.24
31911;BME280;18457;52.432;16.914;2022-09-23T00:37:51;101137.48;;;7.77;88.81
31911;BME280;18457;52.432;16.914;2022-09-23T00:40:23;101137.48;;;7.71;88.42
31911;BME280;18457;52.432;16.914;2022-09-23T00:42:55;101142.90;;;7.67;88.95
31911;BME280;18457;52.432;16.914;2022-09-23T00:45:27;101139.27;;;7.77;88.48
31911;BME280;18457;52.432;16.914;2022-09-23T00:48:02;101135.86;;;7.84;87.87
31911;BME280;18457;52.432;16.914;2022-09-23T00:50:36;101137.11;;;7.85;87.57
31911;BME280;18457;52.432;16.914;2022-09-23T00:53:12;101131.71;;;7.82;87.42
31911;BME280;18457;52.432;16.914;2022-09-23T00:55:48;101130.65;;;7.81;87.20
31911;BME280;18457;52.432;16.914;2022-09-23T00:58:24;101127.23;;;7.75;87.39
31911;BME280;18457;52.432;16.914;2022-09-23T01:00:58;101128.50;;;7.48;87.17
31911;BME280;18457;52.432;16.914;2022-09-23T01:03:31;101125.98;;;7.23;88.13
31911;BME280;18457;52.432;16.914;2022-09-23T01:06:05;101125.61;;;7.30;89.10
31911;BME280;18457;52.432;16.914;2022-09-23T01:08:38;101124.38;;;7.35;88.97
31911;BME280;18457;52.432;16.914;2022-09-23T01:11:21;101124.36;;;7.34;88.64
31911;BME280;18457;52.432;16.914;2022-09-23T01:14:03;101124.34;;;7.25;88.23
31911;BME280;18457;52.432;16.914;2022-09-23T01:16:42;101125.08;;;7.18;89.31
31911;BME280;18457;52.432;16.914;2022-09-23T01:19:29;101124.91;;;7.36;89.21
31911;BME280;18457;52.432;16.914;2022-09-23T01:22:11;101120.95;;;7.37;88.88
31911;BME280;18457;52.432;16.914;2022-09-23T01:25:05;101118.80;;;7.32;89.14
31911;BME280;18457;52.432;16.914;2022-09-23T01:27:55;101118.04;;;7.02;89.11
31911;BME280;18457;52.432;16.914;2022-09-23T01:30:42;101119.48;;;7.09;89.84
31911;BME280;18457;52.432;16.914;2022-09-23T01:33:22;101109.27;;;7.20;89.83
31911;BME280;18457;52.432;16.914;2022-09-23T01:36:03;101112.11;;;7.09;89.79
31911;BME280;18457;52.432;16.914;2022-09-23T01:38:43;101111.05;;;7.11;90.31
31911;BME280;18457;52.432;16.914;2022-09-23T01:41:45;101111.06;;;7.23;90.25
31911;BME280;18457;52.432;16.914;2022-09-23T01:44:24;101110.70;;;7.25;90.50
31911;BME280;18457;52.432;16.914;2022-09-23T01:47:03;101106.92;;;7.17;89.28
31911;BME280;18457;52.432;16.914;2022-09-23T01:49:44;101106.92;;;7.22;88.71
31911;BME280;18457;52.432;16.914;2022-09-23T01:52:26;101104.04;;;7.10;89.62
31911;BME280;18457;52.432;16.914;2022-09-23T01:55:00;101105.67;;;7.13;90.28
31911;BME280;18457;52.432;16.914;2022-09-23T01:57:36;101104.39;;;7.06;90.33
31911;BME280;18457;52.432;16.914;2022-09-23T02:00:13;101104.76;;;7.07;89.85
31911;BME280;18457;52.432;16.914;2022-09-23T02:02:48;101108.69;;;6.95;89.61
31911;BME280;18457;52.432;16.914;2022-09-23T02:05:28;101110.10;;;6.86;89.66
31911;BME280;18457;52.432;16.914;2022-09-23T02:08:05;101108.49;;;6.93;89.64
31911;BME280;18457;52.432;16.914;2022-09-23T02:10:43;101103.84;;;6.97;89.86
31911;BME280;18457;52.432;16.914;2022-09-23T02:13:18;101103.30;;;6.99;90.23
31911;BME280;18457;52.432;16.914;2022-09-23T02:15:53;101104.89;;;6.83;90.11
31911;BME280;18457;52.432;16.914;2022-09-23T02:18:29;101102.23;;;6.95;90.13
31911;BME280;18457;52.432;16.914;2022-09-23T02:21:05;101098.63;;;7.00;89.97
31911;BME280;18457;52.432;16.914;2022-09-23T02:23:43;101100.05;;;6.91;89.30
31911;BME280;18457;52.432;16.914;2022-09-23T02:26:19;101100.58;;;6.82;89.57
31911;BME280;18457;52.432;16.914;2022-09-23T02:29:01;101100.41;;;6.85;89.95
31911;BME280;18457;52.432;16.914;2022-09-23T02:31:41;101099.52;;;6.88;90.07
31911;BME280;18457;52.432;16.914;2022-09-23T02:34:23;101098.79;;;6.87;90.53
31911;BME280;18457;52.432;16.914;2022-09-23T02:37:06;101100.77;;;6.88;90.11
31911;BME280;18457;52.432;16.914;2022-09-23T02:39:50;101098.27;;;6.88;90.00
31911;BME280;18457;52.432;16.914;2022-09-23T02:42:31;101092.51;;;6.89;90.18
31911;BME280;18457;52.432;16.914;2022-09-23T02:45:07;101092.70;;;6.90;90.50
31911;BME280;18457;52.432;16.914;2022-09-23T02:47:40;101094.14;;;6.90;90.57
31911;BME280;18457;52.432;16.914;2022-09-23T02:50:15;101092.70;;;6.89;89.94
31911;BME280;18457;52.432;16.914;2022-09-23T02:52:49;101089.45;;;6.88;90.36
31911;BME280;18457;52.432;16.914;2022-09-23T02:55:21;101086.58;;;6.85;90.21
31911;BME280;18457;52.432;16.914;2022-09-23T02:57:55;101085.51;;;6.89;89.37
31911;BME280;18457;52.432;16.914;2022-09-23T03:00:31;101086.05;;;6.87;89.65
31911;BME280;18457;52.432;16.914;2022-09-23T03:03:14;101093.22;;;6.83;90.55
31911;BME280;18457;52.432;16.914;2022-09-23T03:05:49;101089.27;;;6.83;90.48
31911;BME280;18457;52.432;16.914;2022-09-23T03:08:31;101089.79;;;6.79;89.67
31911;BME280;18457;52.432;16.914;2022-09-23T03:11:09;101089.61;;;6.75;89.25
31911;BME280;18457;52.432;16.914;2022-09-23T03:13:52;101085.65;;;6.77;89.57
31911;BME280;18457;52.432;16.914;2022-09-23T03:16:33;101085.65;;;6.75;89.54
31911;BME280;18457;52.432;16.914;2022-09-23T03:19:20;101082.06;;;6.71;88.98
31911;BME280;18457;52.432;16.914;2022-09-23T03:21:59;101081.14;;;6.64;89.57
31911;BME280;18457;52.432;16.914;2022-09-23T03:24:33;101081.85;;;6.57;89.32
31911;BME280;18457;52.432;16.914;2022-09-23T03:27:11;101078.95;;;6.52;89.45
31911;BME280;18457;52.432;16.914;2022-09-23T03:29:47;101081.82;;;6.51;89.66
31911;BME280;18457;52.432;16.914;2022-09-23T03:32:22;101079.48;;;6.52;89.38
31911;BME280;18457;52.432;16.914;2022-09-23T03:34:57;101079.86;;;6.54;89.53
31911;BME280;18457;52.432;16.914;2022-09-23T03:37:34;101084.02;;;6.59;89.47
31911;BME280;18457;52.432;16.914;2022-09-23T03:40:11;101077.36;;;6.61;88.76
31911;BME280;18457;52.432;16.914;2022-09-23T03:42:45;101075.04;;;6.65;88.07
31911;BME280;18457;52.432;16.914;2022-09-23T03:45:22;101072.19;;;6.75;87.30
31911;BME280;18457;52.432;16.914;2022-09-23T03:47:57;101072.91;;;6.74;86.81
31911;BME280;18457;52.432;16.914;2022-09-23T03:50:29;101072.17;;;6.68;87.06
31911;BME280;18457;52.432;16.914;2022-09-23T03:53:00;101070.90;;;6.66;87.71
31911;BME280;18457;52.432;16.914;2022-09-23T03:55:32;101064.62;;;6.63;88.07
31911;BME280;18457;52.432;16.914;2022-09-23T03:58:04;101060.48;;;6.64;88.26
31911;BME280;18457;52.432;16.914;2022-09-23T04:00:37;101058.17;;;6.66;87.99
31911;BME280;18457;52.432;16.914;2022-09-23T04:03:09;101057.09;;;6.72;87.40
31911;BME280;18457;52.432;16.914;2022-09-23T04:05:41;101054.77;;;6.78;86.90
31911;BME280;18457;52.432;16.914;2022-09-23T04:08:16;101055.98;;;6.58;87.82
31911;BME280;18457;52.432;16.914;2022-09-23T04:10:48;101057.57;;;6.47;88.83
31911;BME280;18457;52.432;16.914;2022-09-23T04:13:24;101055.41;;;6.45;89.22
31911;BME280;18457;52.432;16.914;2022-09-23T04:15:56;101054.14;;;6.42;89.29
31911;BME280;18457;52.432;16.914;2022-09-23T04:18:29;101048.38;;;6.36;88.99
31911;BME280;18457;52.432;16.914;2022-09-23T04:21:01;101048.20;;;6.36;88.47
31911;BME280;18457;52.432;16.914;2022-09-23T04:23:34;101048.20;;;6.35;88.93
31911;BME280;18457;52.432;16.914;2022-09-23T04:26:06;101044.78;;;6.32;89.22
31911;BME280;18457;52.432;16.914;2022-09-23T04:28:38;101046.77;;;6.34;88.82
31911;BME280;18457;52.432;16.914;2022-09-23T04:31:10;101045.86;;;6.32;89.37
31911;BME280;18457;52.432;16.914;2022-09-23T04:33:43;101045.30;;;6.27;88.84
31911;BME280;18457;52.432;16.914;2022-09-23T04:36:15;101044.22;;;6.27;89.04
31911;BME280;18457;52.432;16.914;2022-09-23T04:38:47;101040.45;;;6.24;89.40
31911;BME280;18457;52.432;16.914;2022-09-23T04:41:20;101041.90;;;6.27;89.87
31911;BME280;18457;52.432;16.914;2022-09-23T04:43:52;101045.30;;;6.28;89.72
31911;BME280;18457;52.432;16.914;2022-09-23T04:46:24;101040.10;;;6.26;89.94
31911;BME280;18457;52.432;16.914;2022-09-23T04:48:57;101039.73;;;6.26;90.31
31911;BME280;18457;52.432;16.914;2022-09-23T04:51:29;101038.49;;;6.29;90.41
31911;BME280;18457;52.432;16.914;2022-09-23T04:54:02;101037.41;;;6.29;90.34
31911;BME280;18457;52.432;16.914;2022-09-23T04:56:34;101036.04;;;6.43;89.49
31911;BME280;18457;52.432;16.914;2022-09-23T04:59:06;101044.48;;;6.50;88.79
31911;BME280;18457;52.432;16.914;2022-09-23T05:01:38;101042.48;;;6.42;89.46
31911;BME280;18457;52.432;16.914;2022-09-23T05:04:12;101042.67;;;6.41;89.93
31911;BME280;18457;52.432;16.914;2022-09-23T05:06:44;101044.30;;;6.49;89.77
31911;BME280;18457;52.432;16.914;2022-09-23T05:09:17;101046.31;;;6.62;88.96
31911;BME280;18457;52.432;16.914;2022-09-23T05:11:49;101044.53;;;6.77;88.33
31911;BME280;18457;52.432;16.914;2022-09-23T05:14:21;101040.05;;;6.81;88.25
31911;BME280;18457;52.432;16.914;2022-09-23T05:16:53;101037.70;;;6.68;89.33
31911;BME280;18457;52.432;16.914;2022-09-23T05:19:25;101038.42;;;6.72;89.62
31911;BME280;18457;52.432;16.914;2022-09-23T05:21:58;101043.11;;;6.89;88.83
31911;BME280;18457;52.432;16.914;2022-09-23T05:24:30;101044.02;;;6.91;88.73
31911;BME280;18457;52.432;16.914;2022-09-23T05:27:02;101043.67;;;6.99;88.36
31911;BME280;18457;52.432;16.914;2022-09-23T05:29:36;101038.27;;;7.06;88.26
31911;BME280;18457;52.432;16.914;2022-09-23T05:32:09;101041.16;;;7.10;88.78
31911;BME280;18457;52.432;16.914;2022-09-23T05:34:41;101047.98;;;7.07;89.68
31911;BME280;18457;52.432;16.914;2022-09-23T05:37:14;101044.77;;;7.04;90.20
31911;BME280;18457;52.432;16.914;2022-09-23T05:39:46;101046.18;;;7.03;90.82
31911;BME280;18457;52.432;16.914;2022-09-23T05:42:18;101041.16;;;7.21;90.43
31911;BME280;18457;52.432;16.914;2022-09-23T05:44:50;101041.52;;;7.25;90.35
31911;BME280;18457;52.432;16.914;2022-09-23T05:47:23;101042.59;;;7.37;89.92
31911;BME280;18457;52.432;16.914;2022-09-23T05:49:55;101045.27;;;7.53;88.80
31911;BME280;18457;52.432;16.914;2022-09-23T05:52:30;101043.81;;;7.67;88.06
31911;BME280;18457;52.432;16.914;2022-09-23T05:55:06;101049.73;;;7.75;87.79
31911;BME280;18457;52.432;16.914;2022-09-23T05:57:38;101046.30;;;7.76;88.43
31911;BME280;18457;52.432;16.914;2022-09-23T06:00:12;101043.63;;;7.68;89.95
31911;BME280;18457;52.432;16.914;2022-09-23T06:02:47;101043.61;;;7.72;90.22
31911;BME280;18457;52.432;16.914;2022-09-23T06:05:20;101045.39;;;7.88;89.52
31911;BME280;18457;52.432;16.914;2022-09-23T06:07:52;101048.02;;;8.00;88.52
31911;BME280;18457;52.432;16.914;2022-09-23T06:10:24;101051.97;;;8.08;88.47
31911;BME280;18457;52.432;16.914;2022-09-23T06:12:56;101051.41;;;8.14;88.87
31911;BME280;18457;52.432;16.914;2022-09-23T06:15:29;101053.91;;;8.15;90.12
31911;BME280;18457;52.432;16.914;2022-09-23T06:18:01;101051.92;;;8.17;90.46
31911;BME280;18457;52.432;16.914;2022-09-23T06:20:33;101053.71;;;8.22;90.58
31911;BME280;18457;52.432;16.914;2022-09-23T06:23:05;101048.84;;;8.27;90.86
31911;BME280;18457;52.432;16.914;2022-09-23T06:25:40;101052.05;;;8.40;90.75
31911;BME280;18457;52.432;16.914;2022-09-23T06:28:12;101053.41;;;8.53;90.09
31911;BME280;18457;52.432;16.914;2022-09-23T06:30:45;101049.02;;;8.64;89.47
31911;BME280;18457;52.432;16.914;2022-09-23T06:33:23;101045.19;;;8.73;89.23
31911;BME280;18457;52.432;16.914;2022-09-23T06:36:06;101047.11;;;8.84;89.13
31911;BME280;18457;52.432;16.914;2022-09-23T06:38:40;101050.45;;;8.96;89.16
31911;BME280;18457;52.432;16.914;2022-09-23T06:41:15;101049.10;;;9.07;89.32
31911;BME280;18457;52.432;16.914;2022-09-23T06:43:46;101049.94;;;9.15;89.95
31911;BME280;18457;52.432;16.914;2022-09-23T06:46:18;101045.52;;;9.26;89.82
31911;BME280;18457;52.432;16.914;2022-09-23T06:48:50;101046.15;;;9.37;89.81
31911;BME280;18457;52.432;16.914;2022-09-23T06:51:22;101045.36;;;9.44;89.94
31911;BME280;18457;52.432;16.914;2022-09-23T06:53:54;101044.20;;;9.51;90.79
31911;BME280;18457;52.432;16.914;2022-09-23T06:56:26;101036.70;;;9.61;89.81
31911;BME280;18457;52.432;16.914;2022-09-23T06:59:04;101034.30;;;9.67;89.25
31911;BME280;18457;52.432;16.914;2022-09-23T07:01:39;101037.25;;;9.79;89.32
31911;BME280;18457;52.432;16.914;2022-09-23T07:04:12;101040.05;;;9.87;89.51
31911;BME280;18457;52.432;16.914;2022-09-23T07:06:44;101036.75;;;9.93;89.34
31911;BME280;18457;52.432;16.914;2022-09-23T07:09:17;101033.58;;;10.02;88.77
31911;BME280;18457;52.432;16.914;2022-09-23T07:11:49;101031.88;;;10.09;88.45
31911;BME280;18457;52.432;16.914;2022-09-23T07:14:22;101030.88;;;10.19;88.20
31911;BME280;18457;52.432;16.914;2022-09-23T07:16:54;101027.91;;;10.25;88.46
31911;BME280;18457;52.432;16.914;2022-09-23T07:19:27;101032.71;;;10.30;88.07
31911;BME280;18457;52.432;16.914;2022-09-23T07:21:59;101032.09;;;10.35;87.87
31911;BME280;18457;52.432;16.914;2022-09-23T07:24:31;101037.65;;;10.39;87.66
31911;BME280;18457;52.432;16.914;2022-09-23T07:27:04;101037.44;;;10.42;87.30
31911;BME280;18457;52.432;16.914;2022-09-23T07:29:36;101034.08;;;10.50;87.06
31911;BME280;18457;52.432;16.914;2022-09-23T07:32:19;101035.64;;;10.54;86.80
31911;BME280;18457;52.432;16.914;2022-09-23T07:34:52;101037.35;;;10.61;86.66
31911;BME280;18457;52.432;16.914;2022-09-23T07:37:24;101040.50;;;10.69;86.43
31911;BME280;18457;52.432;16.914;2022-09-23T07:39:56;101038.84;;;10.70;85.93
31911;BME280;18457;52.432;16.914;2022-09-23T07:42:31;101043.11;;;10.76;85.12
31911;BME280;18457;52.432;16.914;2022-09-23T07:45:04;101044.24;;;10.83;84.89
31911;BME280;18457;52.432;16.914;2022-09-23T07:47:37;101044.91;;;10.87;84.63
31911;BME280;18457;52.432;16.914;2022-09-23T07:50:11;101048.42;;;10.94;84.46
31911;BME280;18457;52.432;16.914;2022-09-23T07:52:41;101054.33;;;10.98;84.86
31911;BME280;18457;52.432;16.914;2022-09-23T07:55:15;101050.40;;;11.07;84.30
31911;BME280;18457;52.432;16.914;2022-09-23T07:57:50;101049.04;;;11.12;84.26
31911;BME280;18457;52.432;16.914;2022-09-23T08:00:23;101053.42;;;11.22;84.06
31911;BME280;18457;52.432;16.914;2022-09-23T08:02:55;101050.59;;;11.28;83.35
31911;BME280;18457;52.432;16.914;2022-09-23T08:05:27;101051.59;;;11.33;82.70
31911;BME280;18457;52.432;16.914;2022-09-23T08:07:59;101051.11;;;11.41;82.73
31911;BME280;18457;52.432;16.914;2022-09-23T08:10:31;101046.25;;;11.49;82.75
31911;BME280;18457;52.432;16.914;2022-09-23T08:13:04;101047.55;;;11.58;82.77
31911;BME280;18457;52.432;16.914;2022-09-23T08:15:36;101052.22;;;11.72;81.81
31911;BME280;18457;52.432;16.914;2022-09-23T08:18:08;101048.57;;;11.73;81.55
31911;BME280;18457;52.432;16.914;2022-09-23T08:20:40;101049.27;;;11.75;81.04
31911;BME280;18457;52.432;16.914;2022-09-23T08:23:18;101048.02;;;11.74;81.04
31911;BME280;18457;52.432;16.914;2022-09-23T08:25:57;101046.41;;;11.82;81.03
31911;BME280;18457;52.432;16.914;2022-09-23T08:28:31;101045.52;;;11.91;80.56
31911;BME280;18457;52.432;16.914;2022-09-23T08:31:05;101047.21;;;11.97;80.01
31911;BME280;18457;52.432;16.914;2022-09-23T08:33:38;101042.20;;;12.03;79.98
31911;BME280;18457;52.432;16.914;2022-09-23T08:36:11;101040.23;;;12.11;79.00
31911;BME280;18457;52.432;16.914;2022-09-23T08:38:43;101038.81;;;12.18;77.62
31911;BME280;18457;52.432;16.914;2022-09-23T08:41:21;101043.75;;;12.24;77.36
31911;BME280;18457;52.432;16.914;2022-09-23T08:44:00;101043.98;;;12.31;76.24
31911;BME280;18457;52.432;16.914;2022-09-23T08:46:38;101042.23;;;12.37;75.00
31911;BME280;18457;52.432;16.914;2022-09-23T08:49:16;101035.02;;;12.44;74.97
31911;BME280;18457;52.432;16.914;2022-09-23T08:51:53;101033.38;;;12.53;74.90
31911;BME280;18457;52.432;16.914;2022-09-23T08:54:27;101030.85;;;12.60;75.14
31911;BME280;18457;52.432;16.914;2022-09-23T08:57:02;101037.51;;;12.62;73.98
31911;BME280;18457;52.432;16.914;2022-09-23T08:59:41;101033.10;;;12.64;73.73
31911;BME280;18457;52.432;16.914;2022-09-23T09:02:17;101029.30;;;12.73;73.78
31911;BME280;18457;52.432;16.914;2022-09-23T09:04:52;101033.05;;;12.83;73.19
31911;BME280;18457;52.432;16.914;2022-09-23T09:07:29;101028.54;;;12.89;72.77
31911;BME280;18457;52.432;16.914;2022-09-23T09:10:14;101024.80;;;12.94;72.48
31911;BME280;18457;52.432;16.914;2022-09-23T09:12:51;101023.48;;;13.04;72.42
31911;BME280;18457;52.432;16.914;2022-09-23T09:15:29;101021.23;;;13.16;72.67
31911;BME280;18457;52.432;16.914;2022-09-23T09:18:06;101023.06;;;13.29;71.66
31911;BME280;18457;52.432;16.914;2022-09-23T09:20:53;101017.95;;;13.38;70.68
31911;BME280;18457;52.432;16.914;2022-09-23T09:23:32;101016.65;;;13.52;70.30
31911;BME280;18457;52.432;16.914;2022-09-23T09:26:13;101013.48;;;13.63;68.91
31911;BME280;18457;52.432;16.914;2022-09-23T09:28:52;101009.37;;;13.74;67.79
31911;BME280;18457;52.432;16.914;2022-09-23T09:31:48;101009.73;;;13.86;67.53
31911;BME280;18457;52.432;16.914;2022-09-23T09:34:28;101009.65;;;14.02;66.46
31911;BME280;18457;52.432;16.914;2022-09-23T09:37:04;101009.75;;;13.99;64.78
31911;BME280;18457;52.432;16.914;2022-09-23T09:39:37;101001.02;;;13.98;65.35
31911;BME280;18457;52.432;16.914;2022-09-23T09:42:16;101003.58;;;14.17;64.66
31911;BME280;18457;52.432;16.914;2022-09-23T09:44:52;100998.67;;;14.42;64.75
31911;BME280;18457;52.432;16.914;2022-09-23T09:47:41;100996.27;;;14.61;63.13
31911;BME280;18457;52.432;16.914;2022-09-23T09:50:39;100991.80;;;14.88;62.07
31911;BME280;18457;52.432;16.914;2022-09-23T09:53:22;100991.48;;;15.24;61.67
31911;BME280;18457;52.432;16.914;2022-09-23T09:56:00;100989.53;;;15.34;60.56
31911;BME280;18457;52.432;16.914;2022-09-23T09:58:41;100989.52;;;15.28;58.76
31911;BME280;18457;52.432;16.914;2022-09-23T10:01:23;100984.95;;;15.18;58.13
31911;BME280;18457;52.432;16.914;2022-09-23T10:03:57;100981.44;;;15.03;58.43
31911;BME280;18457;52.432;16.914;2022-09-23T10:06:32;100982.12;;;15.32;58.38
31911;BME280;18457;52.432;16.914;2022-09-23T10:09:14;100975.89;;;15.75;56.71
31911;BME280;18457;52.432;16.914;2022-09-23T10:15:26;100975.81;;;15.67;52.44
31911;BME280;18457;52.432;16.914;2022-09-23T10:17:55;100976.91;;;15.46;52.93
31911;BME280;18457;52.432;16.914;2022-09-23T10:20:25;100973.98;;;15.47;53.55
31911;BME280;18457;52.432;16.914;2022-09-23T10:22:53;100973.86;;;15.45;54.76
31911;BME280;18457;52.432;16.914;2022-09-23T10:25:23;100974.53;;;15.36;55.45
31911;BME280;18457;52.432;16.914;2022-09-23T10:27:53;100970.13;;;15.36;56.29
31911;BME280;18457;52.432;16.914;2022-09-23T10:30:24;100968.77;;;15.39;57.16
31911;BME280;18457;52.432;16.914;2022-09-23T10:32:54;100961.17;;;15.58;55.72
31911;BME280;18457;52.432;16.914;2022-09-23T10:35:25;100956.55;;;16.14;54.15
31911;BME280;18457;52.432;16.914;2022-09-23T10:37:56;100954.34;;;16.57;53.47
31911;BME280;18457;52.432;16.914;2022-09-23T10:40:29;100958.20;;;16.97;51.70
31911;BME280;18457;52.432;16.914;2022-09-23T10:43:27;100957.41;;;17.15;51.32
31911;BME280;18457;52.432;16.914;2022-09-23T10:46:24;100953.65;;;17.35;49.79
31911;BME280;18457;52.432;16.914;2022-09-23T10:49:29;100957.81;;;17.06;48.90
31911;BME280;18457;52.432;16.914;2022-09-23T10:52:34;100959.89;;;16.60;50.57
31911;BME280;18457;52.432;16.914;2022-09-23T10:55:14;100953.66;;;16.37;52.23
31911;BME280;18457;52.432;16.914;2022-09-23T10:57:56;100949.08;;;16.19;53.09
31911;BME280;18457;52.432;16.914;2022-09-23T11:00:39;100950.55;;;16.23;53.27
31911;BME280;18457;52.432;16.914;2022-09-23T11:03:34;100945.35;;;16.63;52.77
31911;BME280;18457;52.432;16.914;2022-09-23T11:06:14;100940.16;;;16.83;51.68
31911;BME280;18457;52.432;16.914;2022-09-23T11:09:09;100935.70;;;17.28;51.19
31911;BME280;18457;52.432;16.914;2022-09-23T11:11:51;100934.98;;;17.48;49.86
31911;BME280;18457;52.432;16.914;2022-09-23T11:14:35;100935.77;;;17.35;50.03
31911;BME280;18457;52.432;16.914;2022-09-23T11:17:27;100933.45;;;17.04;49.87
31911;BME280;18457;52.432;16.914;2022-09-23T11:20:20;100924.81;;;16.84;49.25
31911;BME280;18457;52.432;16.914;2022-09-23T11:23:12;100916.88;;;16.59;49.84
31911;BME280;18457;52.432;16.914;2022-09-23T11:25:47;100916.33;;;16.54;50.56
31911;BME280;18457;52.432;16.914;2022-09-23T11:28:44;100909.85;;;16.47;49.66
31911;BME280;18457;52.432;16.914;2022-09-23T11:31:25;100910.44;;;16.41;49.61
31911;BME280;18457;52.432;16.914;2022-09-23T11:34:12;100904.67;;;16.40;48.76
31911;BME280;18457;52.432;16.914;2022-09-23T11:36:48;100902.29;;;16.35;48.84
31911;BME280;18457;52.432;16.914;2022-09-23T11:39:23;100896.70;;;16.29;49.17
31911;BME280;18457;52.432;16.914;2022-09-23T11:41:56;100896.70;;;16.20;49.74
31911;BME280;18457;52.432;16.914;2022-09-23T11:44:30;100896.47;;;16.53;50.06
31911;BME280;18457;52.432;16.914;2022-09-23T11:47:06;100890.05;;;16.36;50.27
31911;BME280;18457;52.432;16.914;2022-09-23T11:49:39;100890.80;;;16.26;52.03
31911;BME280;18457;52.432;16.914;2022-09-23T11:52:09;100888.16;;;16.24;52.98
31911;BME280;18457;52.432;16.914;2022-09-23T11:54:44;100886.51;;;16.06;53.70
31911;BME280;18457;52.432;16.914;2022-09-23T11:57:23;100885.91;;;16.07;54.06
31911;BME280;18457;52.432;16.914;2022-09-23T11:59:59;100879.15;;;16.08;53.27
31911;BME280;18457;52.432;16.914;2022-09-23T12:05:36;100873.84;;;16.04;53.43
31911;BME280;18457;52.432;16.914;2022-09-23T12:08:16;100871.02;;;16.06;53.13
31911;BME280;18457;52.432;16.914;2022-09-23T12:10:54;100868.42;;;16.07;52.96
31911;BME280;18457;52.432;16.914;2022-09-23T12:13:32;100863.33;;;16.07;53.30
31911;BME280;18457;52.432;16.914;2022-09-23T12:19:22;100854.56;;;16.02;54.01
31911;BME280;18457;52.432;16.914;2022-09-23T12:22:06;100853.15;;;15.97;53.85
31911;BME280;18457;52.432;16.914;2022-09-23T12:24:46;100849.41;;;16.08;52.73
31911;BME280;18457;52.432;16.914;2022-09-23T12:27:29;100847.01;;;16.45;50.83
31911;BME280;18457;52.432;16.914;2022-09-23T12:30:02;100846.42;;;16.69;49.23
31911;BME280;18457;52.432;16.914;2022-09-23T12:32:32;100836.65;;;16.88;48.66
31911;BME280;18457;52.432;16.914;2022-09-23T12:35:01;100840.32;;;17.00;48.34
31911;BME280;18457;52.432;16.914;2022-09-23T12:37:33;100837.46;;;16.95;49.24
31911;BME280;18457;52.432;16.914;2022-09-23T12:40:05;100834.48;;;16.92;49.09
31911;BME280;18457;52.432;16.914;2022-09-23T12:42:40;100838.10;;;16.71;46.71
31911;BME280;18457;52.432;16.914;2022-09-23T12:45:32;100840.23;;;16.73;46.71
31911;BME280;18457;52.432;16.914;2022-09-23T12:48:07;100830.09;;;16.96;45.49
31911;BME280;18457;52.432;16.914;2022-09-23T12:50:57;100828.09;;;17.36;45.74
31911;BME280;18457;52.432;16.914;2022-09-23T12:53:58;100823.64;;;17.46;45.66
31911;BME280;18457;52.432;16.914;2022-09-23T12:57:01;100822.16;;;17.47;45.58
31911;BME280;18457;52.432;16.914;2022-09-23T12:59:57;100819.94;;;17.39;45.96
31911;BME280;18457;52.432;16.914;2022-09-23T13:02:29;100818.20;;;17.17;46.12
31911;BME280;18457;52.432;16.914;2022-09-23T13:05:10;100814.15;;;17.06;45.74
31911;BME280;18457;52.432;16.914;2022-09-23T13:08:03;100813.38;;;16.99;46.13
31911;BME280;18457;52.432;16.914;2022-09-23T13:10:36;100812.20;;;16.96;46.67
31911;BME280;18457;52.432;16.914;2022-09-23T13:13:07;100810.60;;;16.91;46.47
31911;BME280;18457;52.432;16.914;2022-09-23T13:15:43;100802.98;;;16.86;46.23
31911;BME280;18457;52.432;16.914;2022-09-23T13:18:49;100800.70;;;16.79;45.92
31911;BME280;18457;52.432;16.914;2022-09-23T13:21:59;100797.01;;;16.76;47.16
31911;BME280;18457;52.432;16.914;2022-09-23T13:24:45;100793.11;;;16.74;47.74
31911;BME280;18457;52.432;16.914;2022-09-23T13:27:22;100791.65;;;16.74;48.09
31911;BME280;18457;52.432;16.914;2022-09-23T13:29:59;100790.07;;;16.85;48.30
31911;BME280;18457;52.432;16.914;2022-09-23T13:32:31;100788.33;;;16.99;47.77
31911;BME280;18457;52.432;16.914;2022-09-23T13:35:04;100786.44;;;16.68;47.44
31911;BME280;18457;52.432;16.914;2022-09-23T13:37:43;100780.41;;;16.64;48.05
31911;BME280;18457;52.432;16.914;2022-09-23T13:40:22;100780.25;;;16.59;47.18
31911;BME280;18457;52.432;16.914;2022-09-23T13:42:55;100776.08;;;16.71;47.45
31911;BME280;18457;52.432;16.914;2022-09-23T13:45:26;100780.77;;;16.64;47.56